Winter Harbour, Canada
Current Conditions -  °F | °C
As of 10:00 AM on Wednesday 28 Jan 2015 (Local Time) from CYZT Reporting Station
Broken Clouds Broken Clouds  
Wind Chill: 37°   Ceiling: 11000
Heat Index: 37°   Visibility: 20mi
Dew Point: 37°   Wind: 3mph
Humidity: 100%   Direction: 170°S
Pressure: 30.38"   Gusts: NA
Location:  50.52°N, 128.03°W
Report Text: CYZT 281800Z 17003KT 20SM FEW035 BKN110 BKN160 03/03 A3038 RMK SC1AC4AC2 SLP287
Loading
Personal Weather Stations






























Interactive Weather Map New forecast layout! Learn more

10-Day Weather Forecast

Advertisements
Track Severe Weather on mobile